createdAt,value
2022-12-23T00:02:00.590Z,95727.72
2022-12-23T00:04:29.744Z,95729.72
2022-12-23T00:06:57.274Z,95722.53
2022-12-23T00:09:24.767Z,95719.91
2022-12-23T00:12:06.206Z,95714.91
2022-12-23T00:14:51.071Z,95718.13
2022-12-23T00:17:22.633Z,95712.13
2022-12-23T00:19:52.105Z,95696.69
2022-12-23T00:22:19.671Z,95704.91
2022-12-23T00:24:47.157Z,95701.47
2022-12-23T00:27:14.598Z,95692.88
2022-12-23T00:29:42.079Z,95690.28
2022-12-23T00:32:09.682Z,95676.28
2022-12-23T00:34:37.252Z,95673.66
2022-12-23T00:37:06.061Z,95688.69
2022-12-23T00:39:54.874Z,95686.06
2022-12-23T00:42:40.448Z,95687.06
2022-12-23T00:45:16.369Z,95675.06
2022-12-23T00:48:01.656Z,95664.84
2022-12-23T00:50:30.077Z,95670.03
2022-12-23T00:52:59.407Z,95681.25
2022-12-23T00:55:26.933Z,95684.69
2022-12-23T00:57:54.473Z,95674.25
2022-12-23T01:00:42.357Z,95682.06
2022-12-23T01:03:31.122Z,95668.03
2022-12-23T01:05:59.917Z,95668.03
2022-12-23T01:08:29.170Z,95667.84
2022-12-23T01:10:56.792Z,95666.84
2022-12-23T01:13:24.346Z,95665.25
2022-12-23T01:15:51.842Z,95672.03
2022-12-23T01:18:19.312Z,95678.88
2022-12-23T01:20:46.821Z,95686.47
2022-12-23T01:23:14.310Z,95681.69
2022-12-23T01:25:43.125Z,95692.69
2022-12-23T01:28:10.603Z,95697.31
2022-12-23T01:30:38.349Z,95697.13
2022-12-23T01:33:05.889Z,95694.91
2022-12-23T01:35:33.341Z,95694.53
2022-12-23T01:38:01.145Z,95685.50
2022-12-23T01:40:28.641Z,95694.53
2022-12-23T01:42:56.480Z,95695.31
2022-12-23T01:45:29.469Z,95691.50
2022-12-23T01:47:59.765Z,95694.53
2022-12-23T01:50:32.293Z,95701.94
2022-12-23T01:53:07.854Z,95695.53
2022-12-23T01:55:39.901Z,95701.34
2022-12-23T01:58:13.098Z,95706.16
2022-12-23T02:00:59.481Z,95714.59
2022-12-23T02:03:45.667Z,95702.16
2022-12-23T02:06:37.726Z,95710.59
2022-12-23T02:09:17.917Z,95711.38
2022-12-23T02:12:10.182Z,95711.19
2022-12-23T02:15:11.857Z,95718.00
2022-12-23T02:17:49.032Z,95726.41
2022-12-23T02:20:42.229Z,95712.19
2022-12-23T02:23:24.962Z,95714.59
2022-12-23T02:26:06.884Z,95724.00
2022-12-23T02:29:04.609Z,95733.44
2022-12-23T02:31:39.724Z,95743.44
2022-12-23T02:34:15.724Z,95733.63
2022-12-23T02:36:51.929Z,95734.84
2022-12-23T02:39:23.105Z,95746.69
2022-12-23T02:41:58.362Z,95747.28
2022-12-23T02:44:32.694Z,95741.88
2022-12-23T02:47:05.190Z,95735.66
2022-12-23T02:49:37.035Z,95742.28
2022-12-23T02:52:11.609Z,95736.06
2022-12-23T02:54:42.900Z,95740.25
2022-12-23T02:57:13.604Z,95737.47
2022-12-23T02:59:46.723Z,95736.47
2022-12-23T03:02:15.782Z,95747.47
2022-12-23T03:04:43.598Z,95742.06
2022-12-23T03:07:18.750Z,95752.31
2022-12-23T03:09:55.763Z,95760.72
2022-12-23T03:12:32.862Z,95752.72
2022-12-23T03:15:13.031Z,95761.34
2022-12-23T03:17:57.250Z,95759.34
2022-12-23T03:20:29.784Z,95757.31
2022-12-23T03:23:02.642Z,95770.38
2022-12-23T03:25:34.706Z,95763.94
2022-12-23T03:28:09.074Z,95761.09
2022-12-23T03:30:40.296Z,95766.91
2022-12-23T03:33:16.315Z,95772.13
2022-12-23T03:35:48.956Z,95765.13
2022-12-23T03:38:19.436Z,95774.75
2022-12-23T03:40:52.968Z,95774.56
2022-12-23T03:43:25.751Z,95785.78
2022-12-23T03:45:55.503Z,95783.78
2022-12-23T03:48:30.436Z,95797.63
2022-12-23T03:51:02.191Z,95791.81
2022-12-23T03:53:33.226Z,95797.63
2022-12-23T03:56:04.845Z,95803.66
2022-12-23T03:58:39.474Z,95812.09
2022-12-23T04:01:13.936Z,95795.59
2022-12-23T04:03:50.216Z,95808.25
2022-12-23T04:06:20.483Z,95813.28
2022-12-23T04:08:49.915Z,95821.72
2022-12-23T04:11:17.568Z,95818.09
2022-12-23T04:13:45.117Z,95817.06
2022-12-23T04:16:12.757Z,95811.66
2022-12-23T04:18:40.472Z,95824.50
2022-12-23T04:21:09.339Z,95833.13
2022-12-23T04:23:36.814Z,95830.34
2022-12-23T04:26:04.561Z,95835.34
2022-12-23T04:28:32.072Z,95833.31
2022-12-23T04:30:59.578Z,95834.16
2022-12-23T04:33:27.112Z,95859.22
2022-12-23T04:35:54.724Z,95844.34
2022-12-23T04:38:23.721Z,95849.38
2022-12-23T04:40:51.212Z,95847.56
2022-12-23T04:43:19.013Z,95851.00
2022-12-23T04:45:50.987Z,95852.59
2022-12-23T04:48:18.497Z,95852.41
2022-12-23T04:50:46.205Z,95867.03
2022-12-23T04:53:13.766Z,95866.84
2022-12-23T04:55:42.722Z,95857.00
2022-12-23T04:58:10.237Z,95868.44
2022-12-23T05:00:40.000Z,95866.44
2022-12-23T05:03:07.924Z,95874.06
2022-12-23T05:05:35.645Z,95868.84
2022-12-23T05:08:04.761Z,95867.03
2022-12-23T05:10:32.826Z,95869.66
2022-12-23T05:13:01.736Z,95867.63
2022-12-23T05:15:29.226Z,95870.25
2022-12-23T05:17:56.759Z,95877.88
2022-12-23T05:20:24.234Z,95880.50
2022-12-23T05:22:51.699Z,95883.91
2022-12-23T05:25:19.361Z,95886.31
2022-12-23T05:27:46.860Z,95880.31
2022-12-23T05:30:15.926Z,95881.88
2022-12-23T05:32:43.397Z,95883.69
2022-12-23T05:35:11.103Z,95888.94
2022-12-23T05:37:38.604Z,95894.94
2022-12-23T05:40:07.051Z,95889.72
2022-12-23T05:42:34.716Z,95893.13
2022-12-23T05:45:02.194Z,95896.56
2022-12-23T05:47:31.027Z,95899.97
2022-12-23T05:49:58.683Z,95905.97
2022-12-23T05:52:26.337Z,95905.97
2022-12-23T05:54:53.789Z,95907.00
2022-12-23T05:57:21.280Z,95913.03
2022-12-23T05:59:48.770Z,95923.66
2022-12-23T06:02:16.538Z,95926.88
2022-12-23T06:04:45.445Z,95928.88
2022-12-23T06:07:12.922Z,95938.31
2022-12-23T06:09:40.410Z,95940.31
2022-12-23T06:12:08.295Z,95942.94
2022-12-23T06:14:35.887Z,95942.94
2022-12-23T06:17:09.489Z,95932.69
2022-12-23T06:19:37.621Z,95940.53
2022-12-23T06:22:19.703Z,95944.94
2022-12-23T06:24:47.570Z,95949.16
2022-12-23T06:27:15.385Z,95951.75
2022-12-23T06:29:42.960Z,95946.53
2022-12-23T06:32:10.610Z,95949.16
2022-12-23T06:34:38.129Z,95950.78
2022-12-23T06:37:06.993Z,95955.16
2022-12-23T06:39:34.504Z,95957.78
2022-12-23T06:42:02.046Z,95963.00
2022-12-23T06:44:29.542Z,95952.56
2022-12-23T06:46:57.012Z,95952.78
2022-12-23T06:49:24.488Z,95962.19
2022-12-23T06:51:52.009Z,95958.00
2022-12-23T06:54:20.827Z,95971.84
2022-12-23T06:56:48.318Z,95965.00
2022-12-23T06:59:15.829Z,95967.81
2022-12-23T07:01:43.447Z,95959.16
2022-12-23T07:04:11.320Z,95964.19
2022-12-23T07:06:39.517Z,95957.38
2022-12-23T07:09:07.253Z,95970.44
2022-12-23T07:11:36.162Z,95979.84
2022-12-23T07:14:03.773Z,95982.28
2022-12-23T07:16:31.265Z,95971.03
2022-12-23T07:18:58.762Z,95967.81
2022-12-23T07:21:29.580Z,95974.63
2022-12-23T07:23:57.676Z,95989.31
2022-12-23T07:26:25.342Z,95991.91
2022-12-23T07:28:54.217Z,95989.31
2022-12-23T07:31:21.740Z,96005.94
2022-12-23T07:33:49.316Z,96001.53
2022-12-23T07:36:16.979Z,96000.72
2022-12-23T07:38:44.429Z,96005.94
2022-12-23T07:41:11.980Z,96005.94
2022-12-23T07:43:40.062Z,96007.34
2022-12-23T07:46:10.397Z,96003.94
2022-12-23T07:48:37.930Z,96000.34
2022-12-23T07:51:06.154Z,95999.34
2022-12-23T07:53:33.701Z,96001.75
2022-12-23T07:56:01.554Z,95995.75
2022-12-23T07:58:29.056Z,95999.16
2022-12-23T08:01:03.683Z,95991.09
2022-12-23T08:03:32.947Z,95989.31
2022-12-23T08:06:01.944Z,95994.31
2022-12-23T08:08:29.645Z,95997.94
2022-12-23T08:11:01.677Z,95991.69
2022-12-23T08:13:29.448Z,95995.94
2022-12-23T08:15:57.809Z,95995.94
2022-12-23T08:18:26.202Z,95991.50
2022-12-23T08:20:59.157Z,96001.75
2022-12-23T08:23:28.116Z,96014.81
2022-12-23T08:26:04.500Z,96031.28
2022-12-23T08:28:32.388Z,96041.53
2022-12-23T08:31:07.965Z,96039.72
2022-12-23T08:33:36.635Z,96027.69
2022-12-23T08:36:07.188Z,96040.50
2022-12-23T08:38:35.598Z,96040.50
2022-12-23T08:41:03.401Z,96030.06
2022-12-23T08:43:35.788Z,96025.63
2022-12-23T08:46:04.066Z,96030.66
2022-12-23T08:48:31.986Z,96021.25
2022-12-23T08:51:05.670Z,96012.81
2022-12-23T08:53:33.496Z,96012.81
2022-12-23T08:56:04.030Z,96017.00
2022-12-23T08:58:31.558Z,96020.41
2022-12-23T09:00:59.280Z,96022.84
2022-12-23T09:03:26.890Z,96024.47
2022-12-23T09:05:54.525Z,96021.63
2022-12-23T09:08:23.399Z,96018.22
2022-12-23T09:10:50.895Z,96016.41
2022-12-23T09:13:27.846Z,96019.63
2022-12-23T09:15:58.704Z,96021.25
2022-12-23T09:18:26.334Z,96029.88
2022-12-23T09:20:58.994Z,96031.28
2022-12-23T09:23:27.711Z,96021.44
2022-12-23T09:25:55.265Z,96024.84
2022-12-23T09:28:24.190Z,96026.66
2022-12-23T09:30:52.005Z,96021.25
2022-12-23T09:33:19.771Z,96011.59
2022-12-23T09:35:47.471Z,96015.00
2022-12-23T09:38:14.979Z,96019.25
2022-12-23T09:40:43.880Z,96019.03
2022-12-23T09:43:21.528Z,96021.44
2022-12-23T09:46:00.147Z,96020.47
2022-12-23T09:48:30.838Z,96013.22
2022-12-23T09:50:58.395Z,96011.19
2022-12-23T09:53:33.480Z,96004.97
2022-12-23T09:56:09.286Z,96011.59
2022-12-23T09:58:42.804Z,96017.63
2022-12-23T10:01:17.366Z,96020.03
2022-12-23T10:04:04.892Z,96013.00
2022-12-23T10:06:35.244Z,96021.44
2022-12-23T10:09:05.944Z,96021.44
2022-12-23T10:11:38.946Z,96020.47
2022-12-23T10:14:15.692Z,96003.75
2022-12-23T10:16:47.320Z,95999.16
2022-12-23T10:19:19.038Z,95995.53
2022-12-23T10:21:49.901Z,95994.53
2022-12-23T10:24:22.651Z,95994.31
2022-12-23T10:26:53.648Z,95988.69
2022-12-23T10:29:23.235Z,95993.13
2022-12-23T10:32:05.627Z,95993.13
2022-12-23T10:34:46.020Z,95985.09
2022-12-23T10:37:22.482Z,95985.88
2022-12-23T10:40:08.395Z,95983.06
2022-12-23T10:42:42.026Z,95983.88
2022-12-23T10:45:27.630Z,95981.84
2022-12-23T10:48:12.024Z,95975.63
2022-12-23T10:50:54.670Z,95968.38
2022-12-23T10:53:32.613Z,95963.75
2022-12-23T10:56:01.611Z,95963.75
2022-12-23T10:58:31.408Z,95962.75
2022-12-23T11:01:01.211Z,95970.59
2022-12-23T11:03:32.378Z,95966.78
2022-12-23T11:06:03.027Z,95961.31
2022-12-23T11:08:32.599Z,95946.47
2022-12-23T11:11:01.114Z,95946.25
2022-12-23T11:13:37.301Z,95944.22
2022-12-23T11:16:16.454Z,95938.00
2022-12-23T11:18:55.843Z,95940.81
2022-12-23T11:21:23.381Z,95930.38
2022-12-23T11:24:07.913Z,95932.00
2022-12-23T11:26:36.390Z,95928.56
2022-12-23T11:29:10.896Z,95929.38
2022-12-23T11:31:38.864Z,95921.53
2022-12-23T11:34:13.914Z,95927.56
2022-12-23T11:36:42.427Z,95920.72
2022-12-23T11:39:23.713Z,95916.31
2022-12-23T11:41:55.118Z,95911.09
2022-12-23T11:44:30.663Z,95905.03
2022-12-23T11:46:58.542Z,95894.59
2022-12-23T11:49:27.888Z,95890.19
2022-12-23T11:52:02.795Z,95890.97
2022-12-23T11:54:30.668Z,95898.59
2022-12-23T11:56:59.582Z,95889.97
2022-12-23T11:59:34.624Z,95878.50
2022-12-23T12:02:11.144Z,95873.28
2022-12-23T12:04:39.137Z,95865.44
2022-12-23T12:07:08.226Z,95859.19
2022-12-23T12:09:40.287Z,95860.81
2022-12-23T12:12:16.294Z,95854.75
2022-12-23T12:14:48.071Z,95849.34
2022-12-23T12:17:21.793Z,95837.91
2022-12-23T12:19:59.424Z,95839.50
2022-12-23T12:22:34.462Z,95835.06
2022-12-23T12:25:17.871Z,95832.66
2022-12-23T12:27:51.211Z,95825.81
2022-12-23T12:30:22.208Z,95832.88
2022-12-23T12:33:00.815Z,95817.97
2022-12-23T12:35:37.683Z,95817.19
2022-12-23T12:38:14.095Z,95819.00
2022-12-23T12:40:45.329Z,95826.84
2022-12-23T12:43:21.746Z,95820.41
2022-12-23T12:45:54.109Z,95823.84
2022-12-23T12:48:33.183Z,95809.75
2022-12-23T12:51:05.576Z,95810.56
2022-12-23T12:53:34.583Z,95797.50
2022-12-23T12:56:08.868Z,95814.75
2022-12-23T12:58:36.358Z,95799.09
2022-12-23T13:01:19.583Z,95798.09
2022-12-23T13:04:06.306Z,95787.63
2022-12-23T13:06:45.501Z,95790.25
2022-12-23T13:09:23.775Z,95786.63
2022-12-23T13:11:59.068Z,95793.66
2022-12-23T13:14:38.188Z,95786.41
2022-12-23T13:17:13.520Z,95771.13
2022-12-23T13:19:49.751Z,95762.69
2022-12-23T13:22:18.830Z,95754.47
2022-12-23T13:24:58.449Z,95752.06
2022-12-23T13:27:32.675Z,95748.25
2022-12-23T13:30:13.070Z,95739.81
2022-12-23T13:33:07.188Z,95743.25
2022-12-23T13:36:04.930Z,95741.84
2022-12-23T13:38:48.103Z,95730.59
2022-12-23T13:41:24.701Z,95730.59
2022-12-23T13:43:57.017Z,95731.41
2022-12-23T13:46:33.319Z,95730.41
2022-12-23T13:49:10.863Z,95731.00
2022-12-23T13:51:44.807Z,95728.97
2022-12-23T13:54:22.848Z,95727.75
2022-12-23T13:57:01.375Z,95724.94
2022-12-23T13:59:40.732Z,95733.38
2022-12-23T14:02:44.597Z,95736.38
2022-12-23T14:05:34.599Z,95728.53
2022-12-23T14:08:05.103Z,95720.69
2022-12-23T14:10:33.729Z,95727.72
2022-12-23T14:13:04.835Z,95717.06
2022-12-23T14:15:51.931Z,95715.06
2022-12-23T14:18:34.600Z,95714.81
2022-12-23T14:21:13.483Z,95720.06
2022-12-23T14:24:00.930Z,95717.22
2022-12-23T14:26:51.981Z,95707.56
2022-12-23T14:29:53.552Z,95703.97
2022-12-23T14:32:25.277Z,95701.56
2022-12-23T14:35:17.306Z,95701.56
2022-12-23T14:38:06.350Z,95699.13
2022-12-23T14:40:53.284Z,95699.13
2022-12-23T14:43:52.691Z,95696.31
2022-12-23T14:46:46.784Z,95699.72
2022-12-23T14:49:39.020Z,95690.06
2022-12-23T14:52:53.767Z,95693.50
2022-12-23T14:55:54.081Z,95685.44
2022-12-23T14:58:36.953Z,95696.13
2022-12-23T15:01:05.452Z,95699.31
2022-12-23T15:03:35.902Z,95697.72
2022-12-23T15:06:06.840Z,95688.28
2022-12-23T15:08:39.225Z,95700.31
2022-12-23T15:11:09.822Z,95696.72
2022-12-23T15:13:38.886Z,95691.47
2022-12-23T15:16:07.025Z,95692.28
2022-12-23T15:18:34.619Z,95700.13
2022-12-23T15:21:03.931Z,95694.69
2022-12-23T15:23:33.267Z,95696.47
2022-12-23T15:26:02.259Z,95701.50
2022-12-23T15:28:36.846Z,95698.88
2022-12-23T15:31:07.336Z,95700.50
2022-12-23T15:34:02.112Z,95701.06
2022-12-23T15:36:30.703Z,95704.72
2022-12-23T15:38:59.562Z,95708.91
2022-12-23T15:41:27.118Z,95697.44
2022-12-23T15:43:57.895Z,95700.84
2022-12-23T15:46:30.189Z,95701.66
2022-12-23T15:48:58.197Z,95704.66
2022-12-23T15:52:05.260Z,95715.31
2022-12-23T15:54:28.419Z,95712.69
2022-12-23T15:56:58.644Z,95719.53
2022-12-23T15:59:28.640Z,95719.53
2022-12-23T16:01:57.624Z,95728.97
2022-12-23T16:04:27.924Z,95729.56
2022-12-23T16:06:56.446Z,95733.78
2022-12-23T16:09:30.802Z,95729.16
2022-12-23T16:12:00.761Z,95720.28
2022-12-23T16:14:40.004Z,95724.50
2022-12-23T16:17:18.263Z,95722.69
2022-12-23T16:19:47.261Z,95720.88
2022-12-23T16:22:23.343Z,95720.66
2022-12-23T16:25:08.039Z,95711.00
2022-12-23T16:27:39.026Z,95717.03
2022-12-23T16:30:16.012Z,95711.59
2022-12-23T16:32:50.297Z,95711.59
2022-12-23T16:35:29.224Z,95713.41
2022-12-23T16:38:11.178Z,95708.97
2022-12-23T16:40:40.700Z,95716.63
2022-12-23T16:43:16.719Z,95719.22
2022-12-23T16:45:46.822Z,95717.41
2022-12-23T16:48:24.755Z,95720.63
2022-12-23T16:50:53.521Z,95715.38
2022-12-23T16:53:21.706Z,95710.16
2022-12-23T16:56:00.860Z,95705.72
2022-12-23T16:58:30.714Z,95708.13
2022-12-23T17:00:58.898Z,95711.75
2022-12-23T17:03:28.580Z,95705.50
2022-12-23T17:05:58.452Z,95712.34
2022-12-23T17:08:26.371Z,95714.94
2022-12-23T17:10:55.097Z,95732.25
2022-12-23T17:13:22.631Z,95714.75
2022-12-23T17:15:50.412Z,95717.16
2022-12-23T17:18:19.034Z,95715.31
2022-12-23T17:20:50.183Z,95711.69
2022-12-23T17:23:26.817Z,95731.81
2022-12-23T17:25:54.729Z,95722.16
2022-12-23T17:28:22.649Z,95730.22
2022-12-23T17:30:58.652Z,95713.72
2022-12-23T17:33:34.791Z,95710.91
2022-12-23T17:36:57.890Z,95717.94
2022-12-23T17:39:45.397Z,95720.34
2022-12-23T17:42:25.277Z,95713.50
2022-12-23T17:45:00.192Z,95728.19
2022-12-23T17:47:32.081Z,95724.56
2022-12-23T17:50:07.154Z,95714.09
2022-12-23T17:52:46.953Z,95716.72
2022-12-23T17:55:23.939Z,95710.44
2022-12-23T17:57:53.836Z,95718.28
2022-12-23T18:00:31.654Z,95719.31
2022-12-23T18:03:02.335Z,95721.50
2022-12-23T18:08:51.800Z,95720.50
2022-12-23T18:12:14.080Z,95737.78
2022-12-23T18:14:45.228Z,95733.38
2022-12-23T18:17:19.587Z,95727.31
2022-12-23T18:19:49.407Z,95740.41
2022-12-23T18:22:20.457Z,95753.47
2022-12-23T18:25:00.561Z,95759.53
2022-12-23T18:27:29.301Z,95730.38
2022-12-23T18:29:58.870Z,95763.78
2022-12-23T18:32:39.818Z,95780.72
2022-12-23T18:35:34.952Z,95801.44
2022-12-23T18:38:04.563Z,95781.59
2022-12-23T18:40:33.418Z,95773.81
2022-12-23T18:43:02.231Z,95772.41
2022-12-23T18:45:38.226Z,95782.28
2022-12-23T18:48:08.244Z,95784.09
2022-12-23T18:50:37.806Z,95775.44
2022-12-23T18:53:06.002Z,95781.69
2022-12-23T18:55:33.698Z,95806.03
2022-12-23T18:58:01.646Z,95784.31
2022-12-23T19:00:33.559Z,95793.16
2022-12-23T19:03:01.201Z,95812.47
2022-12-23T19:05:32.712Z,95804.03
2022-12-23T19:08:00.302Z,95822.94
2022-12-23T19:10:30.195Z,95819.53
2022-12-23T19:12:57.755Z,95825.75
2022-12-23T19:15:25.280Z,95830.78
2022-12-23T19:17:54.393Z,95816.91
2022-12-23T19:20:22.278Z,95818.50
2022-12-23T19:22:49.932Z,95826.53
2022-12-23T19:25:19.452Z,95833.38
2022-12-23T19:27:47.655Z,95834.38
2022-12-23T19:30:17.554Z,95830.97
2022-12-23T19:32:45.647Z,95833.81
2022-12-23T19:35:15.612Z,95841.84
2022-12-23T19:37:43.307Z,95836.63
2022-12-23T19:40:12.021Z,95836.81
2022-12-23T19:42:40.084Z,95845.47
2022-12-23T19:45:09.725Z,95861.38
2022-12-23T19:47:37.697Z,95870.81
2022-12-23T19:50:07.070Z,95864.59
2022-12-23T19:52:36.406Z,95856.75
2022-12-23T19:55:04.143Z,95859.38
2022-12-23T19:57:31.846Z,95861.97
2022-12-23T19:59:59.387Z,95861.97
2022-12-23T20:02:26.916Z,95871.41
2022-12-23T20:04:54.395Z,95870.59
2022-12-23T20:07:24.883Z,95863.56
2022-12-23T20:09:53.739Z,95873.03
2022-12-23T20:12:21.439Z,95882.47
2022-12-23T20:14:48.998Z,95881.22
2022-12-23T20:17:16.489Z,95868.97
2022-12-23T20:19:46.328Z,95857.91
2022-12-23T20:22:14.078Z,95856.31
2022-12-23T20:24:41.574Z,95859.97
2022-12-23T20:27:12.111Z,95852.91
2022-12-23T20:29:40.803Z,95853.91
2022-12-23T20:32:08.286Z,95858.94
2022-12-23T20:34:39.495Z,95860.75
2022-12-23T20:37:08.228Z,95861.53
2022-12-23T20:39:36.164Z,95865.19
2022-12-23T20:42:04.870Z,95861.53
2022-12-23T20:44:35.633Z,95867.56
2022-12-23T20:47:04.039Z,95866.56
2022-12-23T20:49:31.615Z,95873.59
2022-12-23T20:51:59.285Z,95874.63
2022-12-23T20:54:32.556Z,95891.31
2022-12-23T20:57:01.428Z,95897.34
2022-12-23T20:59:28.918Z,95902.56
2022-12-23T21:01:59.343Z,95923.50
2022-12-23T21:04:27.088Z,95924.47
2022-12-23T21:06:54.560Z,95927.91
2022-12-23T21:09:22.181Z,95932.56
2022-12-23T21:11:49.764Z,95922.88
2022-12-23T21:14:17.606Z,95922.09
2022-12-23T21:16:45.578Z,95935.97
2022-12-23T21:19:18.071Z,95924.72
2022-12-23T21:21:46.555Z,95940.41
2022-12-23T21:24:14.790Z,95944.00
2022-12-23T21:26:42.617Z,95962.28
2022-12-23T21:29:11.367Z,95979.00
2022-12-23T21:31:41.484Z,95973.78
2022-12-23T21:34:10.132Z,95971.16
2022-12-23T21:36:39.680Z,95984.22
2022-12-23T21:39:08.684Z,95988.84
2022-12-23T21:41:38.483Z,95988.84
2022-12-23T21:44:06.644Z,95988.25
2022-12-23T21:46:34.386Z,95996.28
2022-12-23T21:49:02.201Z,96003.34
2022-12-23T21:51:39.011Z,95984.63
2022-12-23T21:54:10.361Z,95982.22
2022-12-23T21:56:38.324Z,95982.63
2022-12-23T21:59:08.973Z,95975.19
2022-12-23T22:01:36.474Z,95985.06
2022-12-23T22:04:04.256Z,95987.84
2022-12-23T22:06:33.604Z,95989.06
2022-12-23T22:09:01.111Z,95990.06
2022-12-23T22:11:32.372Z,95996.31
2022-12-23T22:14:03.510Z,95995.72
2022-12-23T22:16:31.725Z,96000.13
2022-12-23T22:19:01.119Z,95994.13
2022-12-23T22:21:30.505Z,96009.78
2022-12-23T22:23:58.809Z,96008.97
2022-12-23T22:26:28.334Z,96025.66
2022-12-23T22:28:59.307Z,96034.50
2022-12-23T22:31:32.308Z,96024.03
2022-12-23T22:34:00.112Z,96037.53
2022-12-23T22:36:27.927Z,96022.84
2022-12-23T22:38:57.091Z,96018.81
2022-12-23T22:41:25.409Z,96030.09
2022-12-23T22:43:52.931Z,96027.50
2022-12-23T22:46:22.047Z,96014.44
2022-12-23T22:48:49.638Z,96018.81
2022-12-23T22:51:19.089Z,96029.50
2022-12-23T22:53:47.145Z,96038.94
2022-12-23T22:56:16.746Z,96048.56
2022-12-23T22:58:44.641Z,96064.63
2022-12-23T23:01:21.280Z,96078.53
2022-12-23T23:03:51.035Z,96080.31
2022-12-23T23:06:19.105Z,96076.91
2022-12-23T23:08:46.600Z,96077.09
2022-12-23T23:11:14.130Z,96078.09
2022-12-23T23:13:41.640Z,96089.56
2022-12-23T23:16:09.320Z,96106.84
2022-12-23T23:18:39.289Z,96087.75
2022-12-23T23:21:08.332Z,96084.34
2022-12-23T23:23:36.197Z,96088.56
2022-12-23T23:26:04.508Z,96093.78
2022-12-23T23:28:32.341Z,96088.56
2022-12-23T23:31:39.261Z,96107.88
2022-12-23T23:33:47.370Z,96097.19
2022-12-23T23:36:17.836Z,96112.06
2022-12-23T23:38:45.328Z,96097.19
2022-12-23T23:41:16.144Z,96092.97
2022-12-23T23:43:48.064Z,96088.75
2022-12-23T23:46:15.623Z,96101.00
2022-12-23T23:48:43.236Z,96110.25
2022-12-23T23:51:10.712Z,96109.44
2022-12-23T23:53:39.638Z,96100.81
2022-12-23T23:56:08.647Z,96105.25
2022-12-23T23:58:37.935Z,96103.81
